createdAt,value
2022-11-29T00:01:35.196Z,17.73
2022-11-29T00:04:02.908Z,19.75
2022-11-29T00:06:32.443Z,17.23
2022-11-29T00:09:01.579Z,16.10
2022-11-29T00:11:52.660Z,16.98
2022-11-29T00:14:20.889Z,17.67
2022-11-29T00:17:05.810Z,13.82
2022-11-29T00:19:34.536Z,15.00
2022-11-29T00:22:02.455Z,14.60
2022-11-29T00:24:31.701Z,19.00
2022-11-29T00:26:58.909Z,16.25
2022-11-29T00:29:27.436Z,17.95
2022-11-29T00:31:54.735Z,21.75
2022-11-29T00:34:21.795Z,17.88
2022-11-29T00:36:49.111Z,16.88
2022-11-29T00:39:16.534Z,14.93
2022-11-29T00:41:43.915Z,15.85
2022-11-29T00:44:16.779Z,19.67
2022-11-29T00:46:47.216Z,14.43
2022-11-29T00:49:14.598Z,16.40
2022-11-29T00:51:41.514Z,19.83
2022-11-29T00:54:08.812Z,18.10
2022-11-29T00:56:35.714Z,17.25
2022-11-29T00:59:02.985Z,17.45
2022-11-29T01:01:30.444Z,16.38
2022-11-29T01:03:57.707Z,16.35
2022-11-29T01:06:24.984Z,14.55
2022-11-29T01:08:52.260Z,15.32
2022-11-29T01:11:22.353Z,15.85
2022-11-29T01:13:51.023Z,14.05
2022-11-29T01:16:18.443Z,15.13
2022-11-29T01:18:45.705Z,13.57
2022-11-29T01:21:14.681Z,12.82
2022-11-29T01:23:42.329Z,14.10
2022-11-29T01:26:13.019Z,14.63
2022-11-29T01:28:40.406Z,15.55
2022-11-29T01:31:13.965Z,13.63
2022-11-29T01:33:41.548Z,12.85
2022-11-29T01:36:09.533Z,13.25
2022-11-29T01:38:37.208Z,11.43
2022-11-29T01:41:16.822Z,11.82
2022-11-29T01:44:07.783Z,12.50
2022-11-29T01:46:37.539Z,12.50
2022-11-29T01:49:10.291Z,13.05
2022-11-29T01:51:41.986Z,11.35
2022-11-29T01:54:10.914Z,13.30
2022-11-29T01:56:38.867Z,13.82
2022-11-29T01:59:10.573Z,12.23
2022-11-29T02:01:38.357Z,12.13
2022-11-29T02:04:06.089Z,10.75
2022-11-29T02:06:33.797Z,13.05
2022-11-29T02:09:00.747Z,10.43
2022-11-29T02:12:22.087Z,12.50
2022-11-29T02:15:24.460Z,14.13
2022-11-29T02:18:27.564Z,13.48
2022-11-29T02:21:27.022Z,15.65
2022-11-29T02:24:02.854Z,12.20
2022-11-29T02:26:47.834Z,13.23
2022-11-29T02:29:29.758Z,13.70
2022-11-29T02:31:57.056Z,11.93
2022-11-29T02:34:37.243Z,13.38
2022-11-29T02:37:15.243Z,12.70
2022-11-29T02:40:06.766Z,14.70
2022-11-29T02:43:21.883Z,15.75
2022-11-29T02:46:26.666Z,14.65
2022-11-29T02:49:03.014Z,13.18
2022-11-29T02:51:57.978Z,11.63
2022-11-29T02:54:28.259Z,12.65
2022-11-29T02:59:27.780Z,12.13
2022-11-29T03:02:27.518Z,13.77
2022-11-29T03:04:54.854Z,12.43
2022-11-29T03:07:40.672Z,11.43
2022-11-29T03:10:16.491Z,13.98
2022-11-29T03:12:48.128Z,10.88
2022-11-29T03:15:26.980Z,12.07
2022-11-29T03:18:17.810Z,11.77
2022-11-29T03:20:53.598Z,10.90
2022-11-29T03:23:37.531Z,11.38
2022-11-29T03:26:23.117Z,12.73
2022-11-29T03:29:09.410Z,11.02
2022-11-29T03:32:04.922Z,12.27
2022-11-29T03:34:58.438Z,11.23
2022-11-29T03:38:09.577Z,11.27
2022-11-29T03:40:59.824Z,11.50
2022-11-29T03:43:27.103Z,12.85
2022-11-29T03:46:08.961Z,11.77
2022-11-29T03:48:43.675Z,10.52
2022-11-29T03:51:20.092Z,10.70
2022-11-29T03:54:02.825Z,12.18
2022-11-29T03:56:35.463Z,10.32
2022-11-29T03:59:26.409Z,10.98
2022-11-29T04:02:21.966Z,9.30
2022-11-29T04:05:49.163Z,11.35
2022-11-29T04:08:46.577Z,10.55
2022-11-29T04:11:22.985Z,12.77
2022-11-29T04:14:13.220Z,10.23
2022-11-29T04:17:04.090Z,10.07
2022-11-29T04:19:46.068Z,10.10
2022-11-29T04:22:55.687Z,12.10
2022-11-29T04:25:43.043Z,10.73
2022-11-29T04:28:16.128Z,11.20
2022-11-29T04:31:07.466Z,12.25
2022-11-29T04:34:07.792Z,12.73
2022-11-29T04:36:49.416Z,9.68
2022-11-29T04:39:38.055Z,11.02
2022-11-29T04:42:05.322Z,12.90
2022-11-29T04:45:04.406Z,13.80
2022-11-29T04:47:49.503Z,12.60
2022-11-29T04:50:22.485Z,11.45
2022-11-29T04:53:20.263Z,12.80
2022-11-29T04:56:18.035Z,13.55
2022-11-29T04:58:59.596Z,19.27
2022-11-29T05:01:49.476Z,15.05
2022-11-29T05:04:38.587Z,14.68
2022-11-29T05:07:43.391Z,11.57
2022-11-29T05:10:39.499Z,11.98
2022-11-29T05:13:44.469Z,13.77
2022-11-29T05:16:38.737Z,13.97
2022-11-29T05:19:20.453Z,13.82
2022-11-29T05:21:47.742Z,13.77
2022-11-29T05:24:17.377Z,12.40
2022-11-29T05:26:55.281Z,14.07
2022-11-29T05:29:34.114Z,14.15
2022-11-29T05:32:07.017Z,15.85
2022-11-29T05:34:48.047Z,15.70
2022-11-29T05:37:43.319Z,16.70
2022-11-29T05:40:49.133Z,11.90
2022-11-29T05:43:21.757Z,12.43
2022-11-29T05:46:08.752Z,11.50
2022-11-29T05:48:59.055Z,15.13
2022-11-29T05:51:41.129Z,11.63
2022-11-29T05:54:21.595Z,13.25
2022-11-29T05:57:05.278Z,12.57
2022-11-29T05:59:39.719Z,14.02
2022-11-29T06:03:00.253Z,15.82
2022-11-29T06:08:59.969Z,13.07
2022-11-29T06:15:20.343Z,12.95
2022-11-29T06:17:48.926Z,11.15
2022-11-29T06:20:44.724Z,17.00
2022-11-29T06:23:12.333Z,13.45
2022-11-29T06:26:04.072Z,15.77
2022-11-29T06:28:58.924Z,15.63
2022-11-29T06:31:44.544Z,14.73
2022-11-29T06:34:20.584Z,14.38
2022-11-29T06:37:15.085Z,17.60
2022-11-29T06:39:42.363Z,12.80
2022-11-29T06:42:09.873Z,15.88
2022-11-29T06:44:38.091Z,16.33
2022-11-29T06:47:08.743Z,18.42
2022-11-29T06:49:56.791Z,18.55
2022-11-29T06:52:51.802Z,18.30
2022-11-29T06:55:40.098Z,16.63
2022-11-29T06:58:34.497Z,14.98
2022-11-29T07:01:33.070Z,16.73
2022-11-29T07:04:30.405Z,19.83
2022-11-29T07:07:00.993Z,17.50
2022-11-29T07:09:40.478Z,18.02
2022-11-29T07:12:08.269Z,13.80
2022-11-29T07:14:42.856Z,16.65
2022-11-29T07:17:17.782Z,19.38
2022-11-29T07:20:00.765Z,18.13
2022-11-29T07:22:28.054Z,18.60
2022-11-29T07:25:19.573Z,18.17
2022-11-29T07:27:52.645Z,14.90
2022-11-29T07:30:46.138Z,16.95
2022-11-29T07:33:13.446Z,17.73
2022-11-29T07:36:01.083Z,16.67
2022-11-29T07:39:07.106Z,21.10
2022-11-29T07:42:02.703Z,19.05
2022-11-29T07:44:32.454Z,20.15
2022-11-29T07:46:59.778Z,16.90
2022-11-29T07:49:27.181Z,17.48
2022-11-29T07:51:55.543Z,17.77
2022-11-29T07:54:23.112Z,19.00
2022-11-29T07:56:52.351Z,19.42
2022-11-29T07:59:20.436Z,17.67
2022-11-29T08:01:48.311Z,19.95
2022-11-29T08:04:18.295Z,18.98
2022-11-29T08:06:50.755Z,16.23
2022-11-29T08:09:18.400Z,18.88
2022-11-29T08:11:45.855Z,21.88
2022-11-29T08:14:16.777Z,24.38
2022-11-29T08:16:47.539Z,19.75
2022-11-29T08:19:15.391Z,24.80
2022-11-29T08:21:46.925Z,18.23
2022-11-29T08:24:18.086Z,18.13
2022-11-29T08:26:45.580Z,19.58
2022-11-29T08:29:13.127Z,27.52
2022-11-29T08:31:43.865Z,20.38
2022-11-29T08:34:16.185Z,20.70
2022-11-29T08:36:43.631Z,23.52
2022-11-29T08:39:13.408Z,22.35
2022-11-29T08:41:54.462Z,32.88
2022-11-29T08:44:27.292Z,27.67
2022-11-29T08:47:17.360Z,24.33
2022-11-29T08:50:04.290Z,27.70
2022-11-29T08:52:56.223Z,21.35
2022-11-29T08:55:35.959Z,25.77
2022-11-29T08:58:13.387Z,32.13
2022-11-29T09:00:52.964Z,21.92
2022-11-29T09:03:39.491Z,23.23
2022-11-29T09:06:13.009Z,28.23
2022-11-29T09:08:43.702Z,27.30
2022-11-29T09:11:13.404Z,28.02
2022-11-29T09:13:50.256Z,28.20
2022-11-29T09:16:20.410Z,32.42
2022-11-29T09:18:52.378Z,26.08
2022-11-29T09:21:20.207Z,26.75
2022-11-29T09:23:47.749Z,25.05
2022-11-29T09:26:28.550Z,31.50
2022-11-29T09:29:01.437Z,27.13
2022-11-29T09:31:31.643Z,33.75
2022-11-29T09:34:00.675Z,28.63
2022-11-29T09:36:31.359Z,37.92
2022-11-29T09:41:47.016Z,42.45
2022-11-29T09:44:18.137Z,32.25
2022-11-29T09:47:13.530Z,31.23
2022-11-29T09:49:52.342Z,29.58
2022-11-29T09:52:57.163Z,33.42
2022-11-29T09:55:24.499Z,31.65
2022-11-29T09:57:53.578Z,28.85
2022-11-29T10:00:21.088Z,32.20
2022-11-29T10:02:59.448Z,32.10
2022-11-29T10:05:26.828Z,31.70
2022-11-29T10:07:54.227Z,31.05
2022-11-29T10:10:31.750Z,28.58
2022-11-29T10:13:18.924Z,31.40
2022-11-29T10:15:50.451Z,29.08
2022-11-29T10:18:24.647Z,26.00
2022-11-29T10:20:57.598Z,26.65
2022-11-29T10:23:48.759Z,26.88
2022-11-29T10:26:16.170Z,27.05
2022-11-29T10:28:45.153Z,27.58
2022-11-29T10:31:31.855Z,28.25
2022-11-29T10:34:02.559Z,25.52
2022-11-29T10:36:34.925Z,30.63
2022-11-29T10:39:08.819Z,28.80
2022-11-29T10:41:40.473Z,25.92
2022-11-29T10:44:07.790Z,21.65
2022-11-29T10:46:36.636Z,29.70
2022-11-29T10:49:08.181Z,24.92
2022-11-29T10:51:35.506Z,24.88
2022-11-29T10:54:30.326Z,25.15
2022-11-29T10:57:00.470Z,22.85
2022-11-29T10:59:30.123Z,20.48
2022-11-29T11:01:57.907Z,20.10
2022-11-29T11:04:25.158Z,21.10
2022-11-29T11:06:56.670Z,23.38
2022-11-29T11:09:35.237Z,23.92
2022-11-29T11:12:05.112Z,24.58
2022-11-29T11:14:37.041Z,25.20
2022-11-29T11:17:30.108Z,20.83
2022-11-29T11:20:00.847Z,21.88
2022-11-29T11:22:29.328Z,23.35
2022-11-29T11:25:24.738Z,24.27
2022-11-29T11:27:52.236Z,25.27
2022-11-29T11:30:28.739Z,23.67
2022-11-29T11:33:16.175Z,22.70
2022-11-29T11:35:43.545Z,23.58
2022-11-29T11:38:18.036Z,24.02
2022-11-29T11:40:45.582Z,24.08
2022-11-29T11:43:20.609Z,22.65
2022-11-29T11:45:54.554Z,22.80
2022-11-29T11:48:22.473Z,18.98
2022-11-29T11:50:56.369Z,19.88
2022-11-29T11:53:36.686Z,19.02
2022-11-29T11:58:43.934Z,21.27
2022-11-29T12:01:17.348Z,20.05
2022-11-29T12:03:59.200Z,21.98
2022-11-29T12:06:30.276Z,20.20
2022-11-29T12:09:35.407Z,20.58
2022-11-29T12:12:06.197Z,24.95
2022-11-29T12:14:57.675Z,21.80
2022-11-29T12:17:49.591Z,18.52
2022-11-29T12:20:28.263Z,19.45
2022-11-29T12:23:13.294Z,18.05
2022-11-29T12:25:58.464Z,18.88
2022-11-29T12:28:39.886Z,19.88
2022-11-29T12:31:35.081Z,16.95
2022-11-29T12:34:27.243Z,20.23
2022-11-29T12:37:22.137Z,21.75
2022-11-29T12:40:05.520Z,22.65
2022-11-29T12:42:32.788Z,18.90
2022-11-29T12:45:24.066Z,16.52
2022-11-29T12:48:13.595Z,17.65
2022-11-29T12:50:58.610Z,16.60
2022-11-29T12:53:40.725Z,18.95
2022-11-29T12:56:11.158Z,16.83
2022-11-29T12:59:15.597Z,16.58
2022-11-29T13:02:11.553Z,18.50
2022-11-29T13:05:01.604Z,17.67
2022-11-29T13:07:34.565Z,21.33
2022-11-29T13:10:13.735Z,17.48
2022-11-29T13:12:52.945Z,19.10
2022-11-29T13:15:33.062Z,17.33
2022-11-29T13:18:12.477Z,21.38
2022-11-29T13:21:10.502Z,15.23
2022-11-29T13:24:09.953Z,17.35
2022-11-29T13:27:30.626Z,19.60
2022-11-29T13:30:00.652Z,20.48
2022-11-29T13:32:31.824Z,18.10
2022-11-29T13:35:27.982Z,20.55
2022-11-29T13:38:12.852Z,18.08
2022-11-29T13:41:01.086Z,22.73
2022-11-29T13:43:37.842Z,21.33
2022-11-29T13:46:41.239Z,20.05
2022-11-29T13:49:20.409Z,18.27
2022-11-29T13:51:47.787Z,16.30
2022-11-29T13:54:35.016Z,18.88
2022-11-29T13:57:11.069Z,23.88
2022-11-29T13:59:45.772Z,21.60
2022-11-29T14:02:28.466Z,19.45
2022-11-29T14:04:55.886Z,17.83
2022-11-29T14:07:23.492Z,16.90
2022-11-29T14:10:06.918Z,19.00
2022-11-29T14:12:48.867Z,17.45
2022-11-29T14:15:25.278Z,20.38
2022-11-29T14:18:04.962Z,18.90
2022-11-29T14:20:32.480Z,20.80
2022-11-29T14:23:05.387Z,18.10
2022-11-29T14:28:21.068Z,16.75
2022-11-29T14:30:53.517Z,18.25
2022-11-29T14:33:20.989Z,18.50
2022-11-29T14:35:57.178Z,24.17
2022-11-29T14:38:50.199Z,16.65
2022-11-29T14:41:38.028Z,16.70
2022-11-29T14:44:17.906Z,18.23
2022-11-29T14:46:46.051Z,18.42
2022-11-29T14:49:39.467Z,18.77
2022-11-29T14:52:15.511Z,20.40
2022-11-29T14:55:00.552Z,18.38
2022-11-29T14:58:01.929Z,17.20
2022-11-29T15:00:37.349Z,18.23
2022-11-29T15:03:18.413Z,30.92
2022-11-29T15:05:55.193Z,15.98
2022-11-29T15:09:00.789Z,20.48
2022-11-29T15:11:34.211Z,18.55
2022-11-29T15:14:06.297Z,17.85
2022-11-29T15:16:51.843Z,17.83
2022-11-29T15:19:35.323Z,19.33
2022-11-29T15:22:11.295Z,19.35
2022-11-29T15:25:17.212Z,23.58
2022-11-29T15:27:51.678Z,22.77
2022-11-29T15:30:34.849Z,19.38
2022-11-29T15:33:05.065Z,20.90
2022-11-29T15:35:34.360Z,23.70
2022-11-29T15:38:01.993Z,20.98
2022-11-29T15:40:35.196Z,18.30
2022-11-29T15:43:30.326Z,22.27
2022-11-29T15:45:58.312Z,22.35
2022-11-29T15:48:30.631Z,20.13
2022-11-29T15:51:16.334Z,19.52
2022-11-29T15:54:10.093Z,22.70
2022-11-29T15:56:44.242Z,21.23
2022-11-29T15:59:30.305Z,23.65
2022-11-29T16:02:03.509Z,22.83
2022-11-29T16:04:31.604Z,19.58
2022-11-29T16:06:58.892Z,19.45
2022-11-29T16:09:35.311Z,17.95
2022-11-29T16:12:03.094Z,21.58
2022-11-29T16:14:30.568Z,20.15
2022-11-29T16:17:00.809Z,23.77
2022-11-29T16:19:35.201Z,23.35
2022-11-29T16:22:04.424Z,21.50
2022-11-29T16:24:34.381Z,18.60
2022-11-29T16:27:02.170Z,21.42
2022-11-29T16:29:45.044Z,18.23
2022-11-29T16:32:33.742Z,20.00
2022-11-29T16:35:08.223Z,20.52
2022-11-29T16:37:40.748Z,20.98
2022-11-29T16:40:32.013Z,21.13
2022-11-29T16:43:27.801Z,22.10
2022-11-29T16:46:22.859Z,20.15
2022-11-29T16:48:50.750Z,17.77
2022-11-29T16:51:26.929Z,19.23
2022-11-29T16:53:55.800Z,26.00
2022-11-29T16:56:27.905Z,20.13
2022-11-29T16:59:20.878Z,24.27
2022-11-29T17:01:46.867Z,24.23
2022-11-29T17:04:24.037Z,24.10
2022-11-29T17:06:56.253Z,26.80
2022-11-29T17:09:26.837Z,23.75
2022-11-29T17:11:54.996Z,25.15
2022-11-29T17:14:22.391Z,20.63
2022-11-29T17:16:49.860Z,18.00
2022-11-29T17:19:17.359Z,22.90
2022-11-29T17:21:44.490Z,24.42
2022-11-29T17:24:14.386Z,19.77
2022-11-29T17:26:42.480Z,22.00
2022-11-29T17:29:13.992Z,21.92
2022-11-29T17:31:43.745Z,19.92
2022-11-29T17:34:10.981Z,20.33
2022-11-29T17:36:38.248Z,22.88
2022-11-29T17:39:06.016Z,22.02
2022-11-29T17:41:33.740Z,20.88
2022-11-29T17:44:01.159Z,24.38
2022-11-29T17:46:29.587Z,24.77
2022-11-29T17:49:11.014Z,21.13
2022-11-29T17:51:55.489Z,22.98
2022-11-29T17:54:23.100Z,20.13
2022-11-29T17:56:50.617Z,23.75
2022-11-29T17:59:18.285Z,23.00
2022-11-29T18:01:47.399Z,25.05
2022-11-29T18:04:14.885Z,21.00
2022-11-29T18:06:42.426Z,22.33
2022-11-29T18:09:10.673Z,26.58
2022-11-29T18:12:06.384Z,20.75
2022-11-29T18:14:47.768Z,22.20
2022-11-29T18:17:15.025Z,23.38
2022-11-29T18:19:42.529Z,22.27
2022-11-29T18:22:09.824Z,20.23
2022-11-29T18:24:37.082Z,23.38
2022-11-29T18:27:04.506Z,23.80
2022-11-29T18:29:38.285Z,19.58
2022-11-29T18:32:06.550Z,19.88
2022-11-29T18:34:33.817Z,20.45
2022-11-29T18:37:01.271Z,20.25
2022-11-29T18:39:29.646Z,22.05
2022-11-29T18:41:57.034Z,20.75
2022-11-29T18:44:29.273Z,20.30
2022-11-29T18:46:56.852Z,26.27
2022-11-29T18:49:23.774Z,21.73
2022-11-29T18:51:50.662Z,34.60
2022-11-29T18:54:18.666Z,26.27
2022-11-29T18:56:46.288Z,27.30
2022-11-29T18:59:17.033Z,29.48
2022-11-29T19:01:46.199Z,27.63
2022-11-29T19:04:16.246Z,24.80
2022-11-29T19:06:43.955Z,23.85
2022-11-29T19:09:21.306Z,19.98
2022-11-29T19:11:49.728Z,23.15
2022-11-29T19:14:17.217Z,27.20
2022-11-29T19:16:46.387Z,27.00
2022-11-29T19:19:13.718Z,23.95
2022-11-29T19:21:41.369Z,21.95
2022-11-29T19:24:14.079Z,22.98
2022-11-29T19:26:44.484Z,23.25
2022-11-29T19:31:39.540Z,25.25
2022-11-29T19:34:07.263Z,22.60
2022-11-29T19:36:37.033Z,22.13
2022-11-29T19:39:04.674Z,21.52
2022-11-29T19:41:33.691Z,20.25
2022-11-29T19:44:04.464Z,27.52
2022-11-29T19:46:34.038Z,26.35
2022-11-29T19:49:01.767Z,23.83
2022-11-29T19:51:29.722Z,24.80
2022-11-29T19:53:59.292Z,26.58
2022-11-29T19:56:27.093Z,28.17
2022-11-29T19:58:55.252Z,30.20
2022-11-29T20:01:25.339Z,24.80
2022-11-29T20:03:53.128Z,23.10
2022-11-29T20:06:20.435Z,27.38
2022-11-29T20:08:47.923Z,25.65
2022-11-29T20:11:16.890Z,23.63
2022-11-29T20:13:45.520Z,25.88
2022-11-29T20:16:17.074Z,30.33
2022-11-29T20:18:50.466Z,22.83
2022-11-29T20:21:24.287Z,22.90
2022-11-29T20:24:05.964Z,28.58
2022-11-29T20:26:35.290Z,26.60
2022-11-29T20:29:02.889Z,24.67
2022-11-29T20:31:30.465Z,25.55
2022-11-29T20:33:57.680Z,24.75
2022-11-29T20:36:45.632Z,21.10
2022-11-29T20:39:34.866Z,25.42
2022-11-29T20:42:10.687Z,24.73
2022-11-29T20:44:40.323Z,23.02
2022-11-29T20:47:16.604Z,21.67
2022-11-29T20:49:44.196Z,26.38
2022-11-29T20:52:30.209Z,27.05
2022-11-29T20:54:57.631Z,27.38
2022-11-29T20:57:25.024Z,24.75
2022-11-29T20:59:52.513Z,23.63
2022-11-29T21:02:20.206Z,25.23
2022-11-29T21:04:47.408Z,24.13
2022-11-29T21:07:14.824Z,36.22
2022-11-29T21:09:42.130Z,28.73
2022-11-29T21:12:09.558Z,25.13
2022-11-29T21:14:36.921Z,22.10
2022-11-29T21:17:04.274Z,28.52
2022-11-29T21:19:31.416Z,23.52
2022-11-29T21:22:21.818Z,23.58
2022-11-29T21:27:36.104Z,26.73
2022-11-29T21:30:05.739Z,23.35
2022-11-29T21:32:33.630Z,28.05
2022-11-29T21:35:01.051Z,24.17
2022-11-29T21:37:30.860Z,25.75
2022-11-29T21:39:58.333Z,26.38
2022-11-29T21:42:26.368Z,24.15
2022-11-29T21:44:53.225Z,25.02
2022-11-29T21:47:20.553Z,25.15
2022-11-29T21:49:47.514Z,24.05
2022-11-29T21:52:20.694Z,26.20
2022-11-29T21:54:49.675Z,31.17
2022-11-29T21:57:19.637Z,27.92
2022-11-29T21:59:46.904Z,26.02
2022-11-29T22:02:14.442Z,26.65
2022-11-29T22:04:41.880Z,21.10
2022-11-29T22:07:09.464Z,22.85
2022-11-29T22:09:36.796Z,25.63
2022-11-29T22:12:25.779Z,22.83
2022-11-29T22:14:51.630Z,22.02
2022-11-29T22:17:18.918Z,26.80
2022-11-29T22:19:46.161Z,23.20
2022-11-29T22:22:13.276Z,26.63
2022-11-29T22:24:40.967Z,25.60
2022-11-29T22:27:10.092Z,22.88
2022-11-29T22:29:37.377Z,24.98
2022-11-29T22:32:04.794Z,26.15
2022-11-29T22:34:32.128Z,24.08
2022-11-29T22:36:59.390Z,26.48
2022-11-29T22:39:26.670Z,23.73
2022-11-29T22:41:55.093Z,22.60
2022-11-29T22:44:23.566Z,21.42
2022-11-29T22:46:51.216Z,24.98
2022-11-29T22:49:18.593Z,25.48
2022-11-29T22:51:45.873Z,26.15
2022-11-29T22:54:16.594Z,24.83
2022-11-29T22:56:44.722Z,24.23
2022-11-29T22:59:12.348Z,24.90
2022-11-29T23:01:40.827Z,26.23
2022-11-29T23:04:09.814Z,25.20
2022-11-29T23:06:40.146Z,25.23
2022-11-29T23:09:15.853Z,23.30
2022-11-29T23:11:44.826Z,29.25
2022-11-29T23:14:12.202Z,26.05
2022-11-29T23:16:39.621Z,26.92
2022-11-29T23:19:07.033Z,26.63
2022-11-29T23:21:38.100Z,33.10
2022-11-29T23:24:05.716Z,26.45
2022-11-29T23:26:37.430Z,27.73
2022-11-29T23:29:06.069Z,29.65
2022-11-29T23:31:33.291Z,24.23
2022-11-29T23:34:02.000Z,30.70
2022-11-29T23:36:29.286Z,27.00
2022-11-29T23:38:56.582Z,25.45
2022-11-29T23:41:23.444Z,24.85
2022-11-29T23:43:50.747Z,28.10
2022-11-29T23:46:20.831Z,26.90
2022-11-29T23:48:48.513Z,22.88
2022-11-29T23:51:15.882Z,24.85
2022-11-29T23:53:43.443Z,27.23
2022-11-29T23:56:16.161Z,25.48
2022-11-29T23:58:44.399Z,26.33
